Terminal Aerodrome Forecast
Issued by NWS Twin Cities, MN

Home | Current Version | Previous Version | Text Only | Print | Product List | Glossary Off
Versions: 1 2 3 4 5 6 7 8 9 10 11 12 13 14 15 16 17 18 19 20 21 22

000
FTUS43 KMPX 200215 AAA
TAFSTC
TAF AMD
KSTC 200215Z 2002/2024 13008KT 6SM BR SCT008 OVC040
     FM200400 13007KT 4SM BR BKN008
     FM200600 13006KT 1SM BR OVC005
     FM200800 13005KT 1/2SM -DZ FG VV002
     FM201500 13004KT 2SM BR OVC004
     FM201800 13005KT 4SM BR OVC005=

USA.gov is the U.S. government's official web portal to all federal, state and local government web resources and services.